sensor_id;sensor_type;location;lat;lon;timestamp;temperature;humidity
16160;DHT22;8185;57.818;15.224;2022-08-24T00:02:20;9.60;99.90
16160;DHT22;8185;57.818;15.224;2022-08-24T00:04:47;9.60;99.90
16160;DHT22;8185;57.818;15.224;2022-08-24T00:07:15;9.60;99.90
16160;DHT22;8185;57.818;15.224;2022-08-24T00:09:45;9.60;99.90
16160;DHT22;8185;57.818;15.224;2022-08-24T00:12:13;9.50;99.90
16160;DHT22;8185;57.818;15.224;2022-08-24T00:14:42;9.50;99.90
16160;DHT22;8185;57.818;15.224;2022-08-24T00:17:10;9.50;99.90
16160;DHT22;8185;57.818;15.224;2022-08-24T00:19:38;9.50;99.90
16160;DHT22;8185;57.818;15.224;2022-08-24T00:22:05;9.40;99.90
16160;DHT22;8185;57.818;15.224;2022-08-24T00:24:32;9.40;99.90
16160;DHT22;8185;57.818;15.224;2022-08-24T00:27:00;9.30;99.90
16160;DHT22;8185;57.818;15.224;2022-08-24T00:29:27;9.30;99.90
16160;DHT22;8185;57.818;15.224;2022-08-24T00:31:56;9.30;99.90
16160;DHT22;8185;57.818;15.224;2022-08-24T00:34:23;9.20;99.90
16160;DHT22;8185;57.818;15.224;2022-08-24T00:36:51;9.20;99.90
16160;DHT22;8185;57.818;15.224;2022-08-24T00:39:19;9.20;99.90
16160;DHT22;8185;57.818;15.224;2022-08-24T00:41:48;9.20;99.90
16160;DHT22;8185;57.818;15.224;2022-08-24T00:44:18;9.20;99.90
16160;DHT22;8185;57.818;15.224;2022-08-24T00:46:50;9.10;99.90
16160;DHT22;8185;57.818;15.224;2022-08-24T00:49:24;9.10;99.90
16160;DHT22;8185;57.818;15.224;2022-08-24T00:51:59;9.10;99.90
16160;DHT22;8185;57.818;15.224;2022-08-24T00:54:31;9.10;99.90
16160;DHT22;8185;57.818;15.224;2022-08-24T00:57:03;9.00;99.90
16160;DHT22;8185;57.818;15.224;2022-08-24T00:59:35;9.00;99.90
16160;DHT22;8185;57.818;15.224;2022-08-24T01:02:07;8.90;99.90
16160;DHT22;8185;57.818;15.224;2022-08-24T01:04:42;8.90;99.90
16160;DHT22;8185;57.818;15.224;2022-08-24T01:07:12;8.90;99.90
16160;DHT22;8185;57.818;15.224;2022-08-24T01:09:39;9.00;99.90
16160;DHT22;8185;57.818;15.224;2022-08-24T01:12:07;9.20;99.90
16160;DHT22;8185;57.818;15.224;2022-08-24T01:14:35;9.10;99.90
16160;DHT22;8185;57.818;15.224;2022-08-24T01:17:04;9.20;99.90
16160;DHT22;8185;57.818;15.224;2022-08-24T01:19:54;9.20;99.90
16160;DHT22;8185;57.818;15.224;2022-08-24T01:22:41;9.20;99.90
16160;DHT22;8185;57.818;15.224;2022-08-24T01:25:14;9.00;99.90
16160;DHT22;8185;57.818;15.224;2022-08-24T01:27:43;9.00;99.90
16160;DHT22;8185;57.818;15.224;2022-08-24T01:30:13;8.90;99.90
16160;DHT22;8185;57.818;15.224;2022-08-24T01:32:43;8.90;99.90
16160;DHT22;8185;57.818;15.224;2022-08-24T01:35:18;8.80;99.90
16160;DHT22;8185;57.818;15.224;2022-08-24T01:37:45;8.70;99.90
16160;DHT22;8185;57.818;15.224;2022-08-24T01:40:14;8.70;99.90
16160;DHT22;8185;57.818;15.224;2022-08-24T01:42:46;8.70;99.90
16160;DHT22;8185;57.818;15.224;2022-08-24T01:45:14;8.60;99.90
16160;DHT22;8185;57.818;15.224;2022-08-24T01:47:41;8.60;99.90
16160;DHT22;8185;57.818;15.224;2022-08-24T01:50:09;8.60;99.90
16160;DHT22;8185;57.818;15.224;2022-08-24T01:52:38;8.60;99.90
16160;DHT22;8185;57.818;15.224;2022-08-24T01:55:07;8.60;99.90
16160;DHT22;8185;57.818;15.224;2022-08-24T01:57:36;8.60;99.90
16160;DHT22;8185;57.818;15.224;2022-08-24T02:00:06;8.60;99.90
16160;DHT22;8185;57.818;15.224;2022-08-24T02:02:34;8.60;99.90
16160;DHT22;8185;57.818;15.224;2022-08-24T02:05:02;8.60;99.90
16160;DHT22;8185;57.818;15.224;2022-08-24T02:07:29;8.60;99.90
16160;DHT22;8185;57.818;15.224;2022-08-24T02:09:58;8.60;99.90
16160;DHT22;8185;57.818;15.224;2022-08-24T02:12:26;8.60;99.90
16160;DHT22;8185;57.818;15.224;2022-08-24T02:14:55;8.60;99.90
16160;DHT22;8185;57.818;15.224;2022-08-24T02:17:22;8.60;99.90
16160;DHT22;8185;57.818;15.224;2022-08-24T02:19:49;8.60;99.90
16160;DHT22;8185;57.818;15.224;2022-08-24T02:22:17;8.60;99.90
16160;DHT22;8185;57.818;15.224;2022-08-24T02:24:44;8.60;99.90
16160;DHT22;8185;57.818;15.224;2022-08-24T02:27:12;8.70;99.90
16160;DHT22;8185;57.818;15.224;2022-08-24T02:29:41;8.70;99.90
16160;DHT22;8185;57.818;15.224;2022-08-24T02:32:10;8.70;99.90
16160;DHT22;8185;57.818;15.224;2022-08-24T02:34:39;8.70;99.90
16160;DHT22;8185;57.818;15.224;2022-08-24T02:37:06;8.60;99.90
16160;DHT22;8185;57.818;15.224;2022-08-24T02:39:33;8.60;99.90
16160;DHT22;8185;57.818;15.224;2022-08-24T02:42:01;8.50;99.90
16160;DHT22;8185;57.818;15.224;2022-08-24T02:44:28;8.60;99.90
16160;DHT22;8185;57.818;15.224;2022-08-24T02:46:55;8.70;99.90
16160;DHT22;8185;57.818;15.224;2022-08-24T02:49:25;8.70;99.90
16160;DHT22;8185;57.818;15.224;2022-08-24T02:51:52;8.80;99.90
16160;DHT22;8185;57.818;15.224;2022-08-24T02:54:20;8.80;99.90
16160;DHT22;8185;57.818;15.224;2022-08-24T02:56:47;8.90;99.90
16160;DHT22;8185;57.818;15.224;2022-08-24T02:59:15;8.90;99.90
16160;DHT22;8185;57.818;15.224;2022-08-24T03:01:43;8.90;99.90
16160;DHT22;8185;57.818;15.224;2022-08-24T03:04:12;8.90;99.90
16160;DHT22;8185;57.818;15.224;2022-08-24T03:06:41;8.90;99.90
16160;DHT22;8185;57.818;15.224;2022-08-24T03:09:08;8.90;99.90
16160;DHT22;8185;57.818;15.224;2022-08-24T03:11:36;8.90;99.90
16160;DHT22;8185;57.818;15.224;2022-08-24T03:14:03;8.90;99.90
16160;DHT22;8185;57.818;15.224;2022-08-24T03:16:31;9.00;99.90
16160;DHT22;8185;57.818;15.224;2022-08-24T03:18:58;9.00;99.90
16160;DHT22;8185;57.818;15.224;2022-08-24T03:21:26;8.90;99.90
16160;DHT22;8185;57.818;15.224;2022-08-24T03:23:55;9.00;99.90
16160;DHT22;8185;57.818;15.224;2022-08-24T03:26:22;9.00;99.90
16160;DHT22;8185;57.818;15.224;2022-08-24T03:28:50;9.00;99.90
16160;DHT22;8185;57.818;15.224;2022-08-24T03:31:17;9.10;99.90
16160;DHT22;8185;57.818;15.224;2022-08-24T03:33:45;9.10;99.90
16160;DHT22;8185;57.818;15.224;2022-08-24T03:36:12;9.00;99.90
16160;DHT22;8185;57.818;15.224;2022-08-24T03:38:40;8.20;99.90
16160;DHT22;8185;57.818;15.224;2022-08-24T03:41:10;9.00;99.90
16160;DHT22;8185;57.818;15.224;2022-08-24T03:43:38;9.00;99.90
16160;DHT22;8185;57.818;15.224;2022-08-24T03:46:12;9.10;99.90
16160;DHT22;8185;57.818;15.224;2022-08-24T03:48:40;9.00;99.90
16160;DHT22;8185;57.818;15.224;2022-08-24T03:51:12;8.90;99.90
16160;DHT22;8185;57.818;15.224;2022-08-24T03:53:40;8.80;99.90
16160;DHT22;8185;57.818;15.224;2022-08-24T03:56:09;8.80;99.90
16160;DHT22;8185;57.818;15.224;2022-08-24T03:58:38;8.80;99.90
16160;DHT22;8185;57.818;15.224;2022-08-24T04:01:06;8.80;99.90
16160;DHT22;8185;57.818;15.224;2022-08-24T04:03:35;8.80;99.90
16160;DHT22;8185;57.818;15.224;2022-08-24T04:06:04;8.90;99.90
16160;DHT22;8185;57.818;15.224;2022-08-24T04:08:32;8.90;99.90
16160;DHT22;8185;57.818;15.224;2022-08-24T04:11:00;8.90;99.90
16160;DHT22;8185;57.818;15.224;2022-08-24T04:13:29;8.90;99.90
16160;DHT22;8185;57.818;15.224;2022-08-24T04:15:57;8.90;99.90
16160;DHT22;8185;57.818;15.224;2022-08-24T04:18:24;9.10;99.90
16160;DHT22;8185;57.818;15.224;2022-08-24T04:20:51;9.10;99.90
16160;DHT22;8185;57.818;15.224;2022-08-24T04:23:19;9.10;99.90
16160;DHT22;8185;57.818;15.224;2022-08-24T04:25:47;9.10;99.90
16160;DHT22;8185;57.818;15.224;2022-08-24T04:28:19;9.20;99.90
16160;DHT22;8185;57.818;15.224;2022-08-24T04:30:49;9.30;99.90
16160;DHT22;8185;57.818;15.224;2022-08-24T04:33:18;9.30;99.90
16160;DHT22;8185;57.818;15.224;2022-08-24T04:35:46;9.30;99.90
16160;DHT22;8185;57.818;15.224;2022-08-24T04:38:16;9.40;99.90
16160;DHT22;8185;57.818;15.224;2022-08-24T04:40:45;9.40;99.90
16160;DHT22;8185;57.818;15.224;2022-08-24T04:43:15;9.50;99.90
16160;DHT22;8185;57.818;15.224;2022-08-24T04:45:46;9.60;99.90
16160;DHT22;8185;57.818;15.224;2022-08-24T04:48:16;9.60;99.90
16160;DHT22;8185;57.818;15.224;2022-08-24T04:50:44;9.60;99.90
16160;DHT22;8185;57.818;15.224;2022-08-24T04:53:12;9.70;99.90
16160;DHT22;8185;57.818;15.224;2022-08-24T04:55:44;9.70;99.90
16160;DHT22;8185;57.818;15.224;2022-08-24T04:58:13;9.70;99.90
16160;DHT22;8185;57.818;15.224;2022-08-24T05:00:40;9.80;99.90
16160;DHT22;8185;57.818;15.224;2022-08-24T05:03:08;9.90;99.90
16160;DHT22;8185;57.818;15.224;2022-08-24T05:05:40;10.00;99.90
16160;DHT22;8185;57.818;15.224;2022-08-24T05:08:08;10.20;99.90
16160;DHT22;8185;57.818;15.224;2022-08-24T05:10:37;10.30;99.90
16160;DHT22;8185;57.818;15.224;2022-08-24T05:13:05;10.40;99.90
16160;DHT22;8185;57.818;15.224;2022-08-24T05:15:33;10.50;99.90
16160;DHT22;8185;57.818;15.224;2022-08-24T05:18:03;10.60;99.90
16160;DHT22;8185;57.818;15.224;2022-08-24T05:20:32;10.70;99.90
16160;DHT22;8185;57.818;15.224;2022-08-24T05:23:02;10.80;99.90
16160;DHT22;8185;57.818;15.224;2022-08-24T05:25:29;10.80;99.90
16160;DHT22;8185;57.818;15.224;2022-08-24T05:27:57;10.90;99.90
16160;DHT22;8185;57.818;15.224;2022-08-24T05:30:25;10.90;99.90
16160;DHT22;8185;57.818;15.224;2022-08-24T05:32:53;9.80;99.90
16160;DHT22;8185;57.818;15.224;2022-08-24T05:35:20;11.20;99.90
16160;DHT22;8185;57.818;15.224;2022-08-24T05:37:47;11.30;99.90
16160;DHT22;8185;57.818;15.224;2022-08-24T05:40:18;11.40;99.90
16160;DHT22;8185;57.818;15.224;2022-08-24T05:42:45;11.40;99.90
16160;DHT22;8185;57.818;15.224;2022-08-24T05:45:13;11.50;99.90
16160;DHT22;8185;57.818;15.224;2022-08-24T05:47:40;11.60;99.90
16160;DHT22;8185;57.818;15.224;2022-08-24T05:50:08;11.70;99.90
16160;DHT22;8185;57.818;15.224;2022-08-24T05:52:36;11.80;99.90
16160;DHT22;8185;57.818;15.224;2022-08-24T05:55:04;12.00;99.90
16160;DHT22;8185;57.818;15.224;2022-08-24T05:57:34;12.20;99.90
16160;DHT22;8185;57.818;15.224;2022-08-24T06:00:04;12.50;99.90
16160;DHT22;8185;57.818;15.224;2022-08-24T06:02:33;12.70;99.90
16160;DHT22;8185;57.818;15.224;2022-08-24T06:05:01;12.90;99.90
16160;DHT22;8185;57.818;15.224;2022-08-24T06:07:28;12.90;99.90
16160;DHT22;8185;57.818;15.224;2022-08-24T06:09:55;12.90;99.90
16160;DHT22;8185;57.818;15.224;2022-08-24T06:12:23;13.00;99.90
16160;DHT22;8185;57.818;15.224;2022-08-24T06:14:51;13.10;99.90
16160;DHT22;8185;57.818;15.224;2022-08-24T06:17:19;13.20;99.90
16160;DHT22;8185;57.818;15.224;2022-08-24T06:19:46;13.40;99.90
16160;DHT22;8185;57.818;15.224;2022-08-24T06:22:14;13.50;99.90
16160;DHT22;8185;57.818;15.224;2022-08-24T06:24:41;13.60;99.90
16160;DHT22;8185;57.818;15.224;2022-08-24T06:27:27;13.80;99.90
16160;DHT22;8185;57.818;15.224;2022-08-24T06:29:58;13.90;99.90
16160;DHT22;8185;57.818;15.224;2022-08-24T06:32:26;14.00;99.90
16160;DHT22;8185;57.818;15.224;2022-08-24T06:34:56;14.10;99.90
16160;DHT22;8185;57.818;15.224;2022-08-24T06:37:23;14.30;99.90
16160;DHT22;8185;57.818;15.224;2022-08-24T06:39:52;14.30;99.90
16160;DHT22;8185;57.818;15.224;2022-08-24T06:42:21;14.40;99.90
16160;DHT22;8185;57.818;15.224;2022-08-24T06:44:50;14.50;99.90
16160;DHT22;8185;57.818;15.224;2022-08-24T06:47:19;14.60;99.90
16160;DHT22;8185;57.818;15.224;2022-08-24T06:49:46;14.60;99.90
16160;DHT22;8185;57.818;15.224;2022-08-24T06:52:14;14.80;99.90
16160;DHT22;8185;57.818;15.224;2022-08-24T06:54:41;14.80;99.90
16160;DHT22;8185;57.818;15.224;2022-08-24T06:57:09;15.00;99.90
16160;DHT22;8185;57.818;15.224;2022-08-24T06:59:36;15.00;99.90
16160;DHT22;8185;57.818;15.224;2022-08-24T07:02:07;15.10;99.90
16160;DHT22;8185;57.818;15.224;2022-08-24T07:04:36;15.10;99.90
16160;DHT22;8185;57.818;15.224;2022-08-24T07:07:03;15.20;99.90
16160;DHT22;8185;57.818;15.224;2022-08-24T07:09:31;15.30;99.90
16160;DHT22;8185;57.818;15.224;2022-08-24T07:11:58;15.30;99.90
16160;DHT22;8185;57.818;15.224;2022-08-24T07:14:26;15.30;99.90
16160;DHT22;8185;57.818;15.224;2022-08-24T07:16:54;15.40;99.90
16160;DHT22;8185;57.818;15.224;2022-08-24T07:19:23;15.40;99.90
16160;DHT22;8185;57.818;15.224;2022-08-24T07:21:55;15.50;99.90
16160;DHT22;8185;57.818;15.224;2022-08-24T07:24:22;15.50;99.90
16160;DHT22;8185;57.818;15.224;2022-08-24T07:26:50;15.80;99.90
16160;DHT22;8185;57.818;15.224;2022-08-24T07:29:17;16.00;99.90
16160;DHT22;8185;57.818;15.224;2022-08-24T07:31:44;16.20;99.90
16160;DHT22;8185;57.818;15.224;2022-08-24T07:34:13;16.40;99.90
16160;DHT22;8185;57.818;15.224;2022-08-24T07:36:41;16.50;99.90
16160;DHT22;8185;57.818;15.224;2022-08-24T07:39:10;16.70;99.90
16160;DHT22;8185;57.818;15.224;2022-08-24T07:41:39;16.80;99.90
16160;DHT22;8185;57.818;15.224;2022-08-24T07:44:07;17.00;99.90
16160;DHT22;8185;57.818;15.224;2022-08-24T07:46:35;17.10;99.90
16160;DHT22;8185;57.818;15.224;2022-08-24T07:49:02;17.30;99.90
16160;DHT22;8185;57.818;15.224;2022-08-24T07:51:30;17.40;99.90
16160;DHT22;8185;57.818;15.224;2022-08-24T07:53:58;17.60;99.90
16160;DHT22;8185;57.818;15.224;2022-08-24T07:56:28;17.60;99.90
16160;DHT22;8185;57.818;15.224;2022-08-24T07:58:56;17.70;99.90
16160;DHT22;8185;57.818;15.224;2022-08-24T08:01:24;18.00;99.90
16160;DHT22;8185;57.818;15.224;2022-08-24T08:03:52;18.10;99.90
16160;DHT22;8185;57.818;15.224;2022-08-24T08:06:19;18.20;99.90
16160;DHT22;8185;57.818;15.224;2022-08-24T08:08:46;18.30;99.90
16160;DHT22;8185;57.818;15.224;2022-08-24T08:11:14;18.60;99.90
16160;DHT22;8185;57.818;15.224;2022-08-24T08:13:43;18.70;99.90
16160;DHT22;8185;57.818;15.224;2022-08-24T08:16:10;18.80;99.90
16160;DHT22;8185;57.818;15.224;2022-08-24T08:18:38;19.00;99.90
16160;DHT22;8185;57.818;15.224;2022-08-24T08:21:06;19.10;99.90
16160;DHT22;8185;57.818;15.224;2022-08-24T08:23:54;19.20;99.90
16160;DHT22;8185;57.818;15.224;2022-08-24T08:26:39;19.20;99.90
16160;DHT22;8185;57.818;15.224;2022-08-24T08:29:08;19.00;99.90
16160;DHT22;8185;57.818;15.224;2022-08-24T08:31:38;19.10;99.90
16160;DHT22;8185;57.818;15.224;2022-08-24T08:34:07;19.10;99.90
16160;DHT22;8185;57.818;15.224;2022-08-24T08:36:35;19.20;99.90
16160;DHT22;8185;57.818;15.224;2022-08-24T08:39:05;19.50;99.90
16160;DHT22;8185;57.818;15.224;2022-08-24T08:42:04;19.70;99.90
16160;DHT22;8185;57.818;15.224;2022-08-24T08:44:54;19.80;99.90
16160;DHT22;8185;57.818;15.224;2022-08-24T08:47:52;19.80;99.90
16160;DHT22;8185;57.818;15.224;2022-08-24T08:50:28;20.00;99.90
16160;DHT22;8185;57.818;15.224;2022-08-24T08:53:42;20.10;99.90
16160;DHT22;8185;57.818;15.224;2022-08-24T08:56:21;20.20;99.90
16160;DHT22;8185;57.818;15.224;2022-08-24T08:58:56;20.30;99.90
16160;DHT22;8185;57.818;15.224;2022-08-24T09:01:34;20.50;99.90
16160;DHT22;8185;57.818;15.224;2022-08-24T09:04:16;20.50;99.90
16160;DHT22;8185;57.818;15.224;2022-08-24T09:07:06;20.70;99.90
16160;DHT22;8185;57.818;15.224;2022-08-24T09:12:50;20.50;99.90
16160;DHT22;8185;57.818;15.224;2022-08-24T09:15:34;20.80;99.90
16160;DHT22;8185;57.818;15.224;2022-08-24T09:18:17;20.80;99.90
16160;DHT22;8185;57.818;15.224;2022-08-24T09:21:01;21.20;99.90
16160;DHT22;8185;57.818;15.224;2022-08-24T09:23:35;21.30;99.90
16160;DHT22;8185;57.818;15.224;2022-08-24T09:26:09;21.40;99.90
16160;DHT22;8185;57.818;15.224;2022-08-24T09:28:42;21.30;99.90
16160;DHT22;8185;57.818;15.224;2022-08-24T09:34:24;21.70;99.90
16160;DHT22;8185;57.818;15.224;2022-08-24T09:37:03;21.80;99.90
16160;DHT22;8185;57.818;15.224;2022-08-24T09:39:53;21.90;99.90
16160;DHT22;8185;57.818;15.224;2022-08-24T09:43:08;22.10;99.90
16160;DHT22;8185;57.818;15.224;2022-08-24T09:49:20;21.90;99.20
16160;DHT22;8185;57.818;15.224;2022-08-24T09:58:17;22.70;99.30
16160;DHT22;8185;57.818;15.224;2022-08-24T10:00:49;22.50;99.90
16160;DHT22;8185;57.818;15.224;2022-08-24T10:03:27;22.90;99.40
16160;DHT22;8185;57.818;15.224;2022-08-24T10:06:25;23.50;98.40
16160;DHT22;8185;57.818;15.224;2022-08-24T10:09:13;23.80;97.10
16160;DHT22;8185;57.818;15.224;2022-08-24T10:11:51;23.90;96.30
16160;DHT22;8185;57.818;15.224;2022-08-24T10:14:35;23.90;96.90
16160;DHT22;8185;57.818;15.224;2022-08-24T10:17:14;24.40;95.80
16160;DHT22;8185;57.818;15.224;2022-08-24T10:20:04;24.70;95.70
16160;DHT22;8185;57.818;15.224;2022-08-24T10:22:53;25.00;94.60
16160;DHT22;8185;57.818;15.224;2022-08-24T10:25:30;25.30;94.10
16160;DHT22;8185;57.818;15.224;2022-08-24T10:28:08;26.30;93.50
16160;DHT22;8185;57.818;15.224;2022-08-24T10:30:51;25.90;93.50
16160;DHT22;8185;57.818;15.224;2022-08-24T10:33:23;26.70;91.80
16160;DHT22;8185;57.818;15.224;2022-08-24T10:39:15;25.30;92.70
16160;DHT22;8185;57.818;15.224;2022-08-24T10:42:30;25.90;90.80
16160;DHT22;8185;57.818;15.224;2022-08-24T10:45:32;26.30;88.50
16160;DHT22;8185;57.818;15.224;2022-08-24T10:48:15;26.80;86.50
16160;DHT22;8185;57.818;15.224;2022-08-24T10:50:53;27.20;89.40
16160;DHT22;8185;57.818;15.224;2022-08-24T10:53:25;27.70;83.30
16160;DHT22;8185;57.818;15.224;2022-08-24T10:56:05;26.80;81.30
16160;DHT22;8185;57.818;15.224;2022-08-24T10:58:49;27.40;82.40
16160;DHT22;8185;57.818;15.224;2022-08-24T11:01:29;28.20;81.50
16160;DHT22;8185;57.818;15.224;2022-08-24T11:04:00;28.10;81.50
16160;DHT22;8185;57.818;15.224;2022-08-24T11:06:30;28.00;83.40
16160;DHT22;8185;57.818;15.224;2022-08-24T11:09:02;26.80;78.80
16160;DHT22;8185;57.818;15.224;2022-08-24T11:11:34;26.80;82.90
16160;DHT22;8185;57.818;15.224;2022-08-24T11:14:04;28.10;80.00
16160;DHT22;8185;57.818;15.224;2022-08-24T11:16:36;27.70;81.40
16160;DHT22;8185;57.818;15.224;2022-08-24T11:19:08;27.70;79.60
16160;DHT22;8185;57.818;15.224;2022-08-24T11:21:46;27.60;80.50
16160;DHT22;8185;57.818;15.224;2022-08-24T11:24:29;26.60;83.20
16160;DHT22;8185;57.818;15.224;2022-08-24T11:27:08;27.30;84.70
16160;DHT22;8185;57.818;15.224;2022-08-24T11:29:57;27.70;81.50
16160;DHT22;8185;57.818;15.224;2022-08-24T11:32:29;27.60;81.00
16160;DHT22;8185;57.818;15.224;2022-08-24T11:35:02;27.10;78.50
16160;DHT22;8185;57.818;15.224;2022-08-24T11:37:33;25.80;79.00
16160;DHT22;8185;57.818;15.224;2022-08-24T11:40:00;25.20;81.50
16160;DHT22;8185;57.818;15.224;2022-08-24T11:42:44;25.10;82.40
16160;DHT22;8185;57.818;15.224;2022-08-24T11:45:21;24.30;85.90
16160;DHT22;8185;57.818;15.224;2022-08-24T11:47:58;23.90;87.60
16160;DHT22;8185;57.818;15.224;2022-08-24T11:50:34;23.60;88.40
16160;DHT22;8185;57.818;15.224;2022-08-24T11:53:13;23.60;89.00
16160;DHT22;8185;57.818;15.224;2022-08-24T11:55:48;24.00;87.50
16160;DHT22;8185;57.818;15.224;2022-08-24T11:58:27;23.70;87.70
16160;DHT22;8185;57.818;15.224;2022-08-24T12:01:03;23.60;89.30
16160;DHT22;8185;57.818;15.224;2022-08-24T12:03:44;23.40;91.40
16160;DHT22;8185;57.818;15.224;2022-08-24T12:06:29;23.30;90.20
16160;DHT22;8185;57.818;15.224;2022-08-24T12:09:03;23.20;89.10
16160;DHT22;8185;57.818;15.224;2022-08-24T12:11:38;22.90;90.50
16160;DHT22;8185;57.818;15.224;2022-08-24T12:14:15;22.80;91.30
16160;DHT22;8185;57.818;15.224;2022-08-24T12:16:49;22.80;92.70
16160;DHT22;8185;57.818;15.224;2022-08-24T12:19:21;22.90;90.60
16160;DHT22;8185;57.818;15.224;2022-08-24T12:21:53;22.80;91.70
16160;DHT22;8185;57.818;15.224;2022-08-24T12:24:28;22.90;91.10
16160;DHT22;8185;57.818;15.224;2022-08-24T12:27:01;23.60;90.50
16160;DHT22;8185;57.818;15.224;2022-08-24T12:29:33;22.80;91.90
16160;DHT22;8185;57.818;15.224;2022-08-24T12:32:05;22.90;91.50
16160;DHT22;8185;57.818;15.224;2022-08-24T12:34:43;22.90;91.20
16160;DHT22;8185;57.818;15.224;2022-08-24T12:37:18;22.70;90.10
16160;DHT22;8185;57.818;15.224;2022-08-24T12:39:52;22.60;91.10
16160;DHT22;8185;57.818;15.224;2022-08-24T12:42:28;22.70;90.80
16160;DHT22;8185;57.818;15.224;2022-08-24T12:45:02;22.80;90.20
16160;DHT22;8185;57.818;15.224;2022-08-24T12:47:36;22.70;90.80
16160;DHT22;8185;57.818;15.224;2022-08-24T12:50:11;22.60;90.20
16160;DHT22;8185;57.818;15.224;2022-08-24T12:56:16;22.60;90.50
16160;DHT22;8185;57.818;15.224;2022-08-24T12:58:57;22.60;90.00
16160;DHT22;8185;57.818;15.224;2022-08-24T13:01:30;22.70;90.70
16160;DHT22;8185;57.818;15.224;2022-08-24T13:04:07;22.80;89.30
16160;DHT22;8185;57.818;15.224;2022-08-24T13:06:39;22.90;89.70
16160;DHT22;8185;57.818;15.224;2022-08-24T13:09:16;23.00;90.00
16160;DHT22;8185;57.818;15.224;2022-08-24T13:11:52;23.10;87.40
16160;DHT22;8185;57.818;15.224;2022-08-24T13:14:21;23.10;90.30
16160;DHT22;8185;57.818;15.224;2022-08-24T13:17:09;23.10;87.70
16160;DHT22;8185;57.818;15.224;2022-08-24T13:19:41;23.30;89.10
16160;DHT22;8185;57.818;15.224;2022-08-24T13:22:46;23.60;88.70
16160;DHT22;8185;57.818;15.224;2022-08-24T13:25:25;23.80;88.80
16160;DHT22;8185;57.818;15.224;2022-08-24T13:28:07;24.00;88.10
16160;DHT22;8185;57.818;15.224;2022-08-24T13:31:01;23.90;85.90
16160;DHT22;8185;57.818;15.224;2022-08-24T13:33:35;24.20;88.20
16160;DHT22;8185;57.818;15.224;2022-08-24T13:36:08;24.60;87.80
16160;DHT22;8185;57.818;15.224;2022-08-24T13:39:05;25.00;84.20
16160;DHT22;8185;57.818;15.224;2022-08-24T13:41:53;24.70;82.50
16160;DHT22;8185;57.818;15.224;2022-08-24T13:47:51;25.60;82.90
16160;DHT22;8185;57.818;15.224;2022-08-24T13:50:34;25.80;83.20
16160;DHT22;8185;57.818;15.224;2022-08-24T13:53:39;26.30;77.40
16160;DHT22;8185;57.818;15.224;2022-08-24T13:56:29;26.90;78.50
16160;DHT22;8185;57.818;15.224;2022-08-24T13:59:06;27.30;76.50
16160;DHT22;8185;57.818;15.224;2022-08-24T14:01:37;27.10;75.90
16160;DHT22;8185;57.818;15.224;2022-08-24T14:07:19;27.20;76.30
16160;DHT22;8185;57.818;15.224;2022-08-24T14:10:00;28.10;78.60
16160;DHT22;8185;57.818;15.224;2022-08-24T14:12:53;29.20;77.50
16160;DHT22;8185;57.818;15.224;2022-08-24T14:15:30;29.50;71.10
16160;DHT22;8185;57.818;15.224;2022-08-24T14:18:10;29.60;69.70
16160;DHT22;8185;57.818;15.224;2022-08-24T14:23:52;30.10;69.80
16160;DHT22;8185;57.818;15.224;2022-08-24T14:27:04;31.30;68.50
16160;DHT22;8185;57.818;15.224;2022-08-24T14:29:35;30.60;67.50
16160;DHT22;8185;57.818;15.224;2022-08-24T14:32:31;32.20;66.40
16160;DHT22;8185;57.818;15.224;2022-08-24T14:38:15;30.50;63.40
16160;DHT22;8185;57.818;15.224;2022-08-24T14:41:06;30.60;66.00
16160;DHT22;8185;57.818;15.224;2022-08-24T14:44:01;31.20;64.70
16160;DHT22;8185;57.818;15.224;2022-08-24T14:46:42;31.80;63.80
16160;DHT22;8185;57.818;15.224;2022-08-24T14:49:17;31.90;66.60
16160;DHT22;8185;57.818;15.224;2022-08-24T14:51:56;32.70;65.30
16160;DHT22;8185;57.818;15.224;2022-08-24T14:54:35;34.10;60.70
16160;DHT22;8185;57.818;15.224;2022-08-24T14:57:16;34.10;60.10
16160;DHT22;8185;57.818;15.224;2022-08-24T14:59:54;33.50;59.70
16160;DHT22;8185;57.818;15.224;2022-08-24T15:03:10;33.40;60.20
16160;DHT22;8185;57.818;15.224;2022-08-24T15:05:51;33.60;58.60
16160;DHT22;8185;57.818;15.224;2022-08-24T15:08:30;33.50;57.60
16160;DHT22;8185;57.818;15.224;2022-08-24T15:11:06;33.10;59.00
16160;DHT22;8185;57.818;15.224;2022-08-24T15:13:42;33.60;58.70
16160;DHT22;8185;57.818;15.224;2022-08-24T15:16:14;33.20;59.00
16160;DHT22;8185;57.818;15.224;2022-08-24T15:18:48;32.90;58.90
16160;DHT22;8185;57.818;15.224;2022-08-24T15:21:28;33.10;58.70
16160;DHT22;8185;57.818;15.224;2022-08-24T15:24:14;34.60;57.50
16160;DHT22;8185;57.818;15.224;2022-08-24T15:26:56;35.60;56.50
16160;DHT22;8185;57.818;15.224;2022-08-24T15:29:29;35.10;56.00
16160;DHT22;8185;57.818;15.224;2022-08-24T15:32:02;34.70;57.60
16160;DHT22;8185;57.818;15.224;2022-08-24T15:34:39;34.40;54.20
16160;DHT22;8185;57.818;15.224;2022-08-24T15:37:08;34.10;56.40
16160;DHT22;8185;57.818;15.224;2022-08-24T15:39:36;34.60;56.30
16160;DHT22;8185;57.818;15.224;2022-08-24T15:42:12;36.20;53.60
16160;DHT22;8185;57.818;15.224;2022-08-24T15:44:43;36.20;52.10
16160;DHT22;8185;57.818;15.224;2022-08-24T15:47:26;36.00;52.70
16160;DHT22;8185;57.818;15.224;2022-08-24T15:49:57;36.50;52.50
16160;DHT22;8185;57.818;15.224;2022-08-24T15:52:47;35.40;53.50
16160;DHT22;8185;57.818;15.224;2022-08-24T15:55:33;34.70;52.60
16160;DHT22;8185;57.818;15.224;2022-08-24T15:58:29;34.40;55.20
16160;DHT22;8185;57.818;15.224;2022-08-24T16:01:01;35.70;53.60
16160;DHT22;8185;57.818;15.224;2022-08-24T16:04:04;35.10;54.90
16160;DHT22;8185;57.818;15.224;2022-08-24T16:06:39;35.20;53.80
16160;DHT22;8185;57.818;15.224;2022-08-24T16:09:12;34.10;53.60
16160;DHT22;8185;57.818;15.224;2022-08-24T16:11:42;35.00;53.60
16160;DHT22;8185;57.818;15.224;2022-08-24T16:14:12;34.10;54.30
16160;DHT22;8185;57.818;15.224;2022-08-24T16:16:44;35.10;54.40
16160;DHT22;8185;57.818;15.224;2022-08-24T16:19:21;35.10;54.00
16160;DHT22;8185;57.818;15.224;2022-08-24T16:21:57;34.40;54.60
16160;DHT22;8185;57.818;15.224;2022-08-24T16:24:31;34.70;54.90
16160;DHT22;8185;57.818;15.224;2022-08-24T16:27:04;34.60;54.20
16160;DHT22;8185;57.818;15.224;2022-08-24T16:29:47;35.70;53.80
16160;DHT22;8185;57.818;15.224;2022-08-24T16:32:19;34.90;53.90
16160;DHT22;8185;57.818;15.224;2022-08-24T16:34:49;35.10;55.10
16160;DHT22;8185;57.818;15.224;2022-08-24T16:37:19;34.40;53.40
16160;DHT22;8185;57.818;15.224;2022-08-24T16:39:47;34.10;55.00
16160;DHT22;8185;57.818;15.224;2022-08-24T16:42:21;34.30;55.90
16160;DHT22;8185;57.818;15.224;2022-08-24T16:44:49;34.40;54.40
16160;DHT22;8185;57.818;15.224;2022-08-24T16:47:19;34.20;54.90
16160;DHT22;8185;57.818;15.224;2022-08-24T16:49:47;34.80;53.80
16160;DHT22;8185;57.818;15.224;2022-08-24T16:52:16;34.40;53.10